sensor_id;sensor_type;location;lat;lon;timestamp;temperature;humidity
2571;DHT22;1295;51.130;6.732;2023-08-20T00:01:01;25.20;99.90
2571;DHT22;1295;51.130;6.732;2023-08-20T00:03:27;25.20;99.90
2571;DHT22;1295;51.130;6.732;2023-08-20T00:05:54;25.20;99.90
2571;DHT22;1295;51.130;6.732;2023-08-20T00:08:25;25.10;99.90
2571;DHT22;1295;51.130;6.732;2023-08-20T00:10:55;25.10;99.90
2571;DHT22;1295;51.130;6.732;2023-08-20T00:13:21;25.10;99.90
2571;DHT22;1295;51.130;6.732;2023-08-20T00:15:48;25.10;99.90
2571;DHT22;1295;51.130;6.732;2023-08-20T00:18:14;25.10;99.90
2571;DHT22;1295;51.130;6.732;2023-08-20T00:20:41;25.10;99.90
2571;DHT22;1295;51.130;6.732;2023-08-20T00:23:08;25.10;99.90
2571;DHT22;1295;51.130;6.732;2023-08-20T00:25:35;25.10;99.90
2571;DHT22;1295;51.130;6.732;2023-08-20T00:28:00;25.00;99.90
2571;DHT22;1295;51.130;6.732;2023-08-20T00:30:26;25.10;99.90
2571;DHT22;1295;51.130;6.732;2023-08-20T00:32:52;25.00;99.90
2571;DHT22;1295;51.130;6.732;2023-08-20T00:35:18;25.00;99.90
2571;DHT22;1295;51.130;6.732;2023-08-20T00:37:44;25.00;99.90
2571;DHT22;1295;51.130;6.732;2023-08-20T00:40:10;25.00;99.90
2571;DHT22;1295;51.130;6.732;2023-08-20T00:42:36;25.00;99.90
2571;DHT22;1295;51.130;6.732;2023-08-20T00:45:02;25.00;99.90
2571;DHT22;1295;51.130;6.732;2023-08-20T00:47:28;25.00;99.90
2571;DHT22;1295;51.130;6.732;2023-08-20T00:49:54;24.90;99.90
2571;DHT22;1295;51.130;6.732;2023-08-20T00:52:20;24.90;99.90
2571;DHT22;1295;51.130;6.732;2023-08-20T00:54:51;24.90;99.90
2571;DHT22;1295;51.130;6.732;2023-08-20T00:57:18;24.90;99.90
2571;DHT22;1295;51.130;6.732;2023-08-20T00:59:43;24.90;99.90
2571;DHT22;1295;51.130;6.732;2023-08-20T01:02:08;24.90;99.90
2571;DHT22;1295;51.130;6.732;2023-08-20T01:04:34;24.90;99.90
2571;DHT22;1295;51.130;6.732;2023-08-20T01:12:15;24.90;99.90
2571;DHT22;1295;51.130;6.732;2023-08-20T01:14:40;24.80;99.90
2571;DHT22;1295;51.130;6.732;2023-08-20T01:17:06;24.80;99.90
2571;DHT22;1295;51.130;6.732;2023-08-20T01:19:32;24.80;99.90
2571;DHT22;1295;51.130;6.732;2023-08-20T01:22:13;24.70;99.90
2571;DHT22;1295;51.130;6.732;2023-08-20T01:27:28;24.70;99.90
2571;DHT22;1295;51.130;6.732;2023-08-20T01:29:52;24.70;99.90
2571;DHT22;1295;51.130;6.732;2023-08-20T01:32:17;24.70;99.90
2571;DHT22;1295;51.130;6.732;2023-08-20T01:34:43;24.70;99.90
2571;DHT22;1295;51.130;6.732;2023-08-20T01:37:09;24.70;99.90
2571;DHT22;1295;51.130;6.732;2023-08-20T01:39:35;24.70;99.90
2571;DHT22;1295;51.130;6.732;2023-08-20T01:42:01;24.70;99.90
2571;DHT22;1295;51.130;6.732;2023-08-20T01:44:26;24.70;99.90
2571;DHT22;1295;51.130;6.732;2023-08-20T01:46:52;24.70;99.90
2571;DHT22;1295;51.130;6.732;2023-08-20T01:49:18;24.60;99.90
2571;DHT22;1295;51.130;6.732;2023-08-20T01:51:43;24.60;99.90
2571;DHT22;1295;51.130;6.732;2023-08-20T01:54:10;24.70;99.90
2571;DHT22;1295;51.130;6.732;2023-08-20T01:56:35;24.60;99.90
2571;DHT22;1295;51.130;6.732;2023-08-20T01:59:01;24.60;99.90
2571;DHT22;1295;51.130;6.732;2023-08-20T02:01:27;24.60;99.90
2571;DHT22;1295;51.130;6.732;2023-08-20T02:03:53;24.60;99.90
2571;DHT22;1295;51.130;6.732;2023-08-20T02:06:19;24.60;99.90
2571;DHT22;1295;51.130;6.732;2023-08-20T02:08:44;24.60;99.90
2571;DHT22;1295;51.130;6.732;2023-08-20T02:11:10;24.60;99.90
2571;DHT22;1295;51.130;6.732;2023-08-20T02:13:43;24.60;99.90
2571;DHT22;1295;51.130;6.732;2023-08-20T02:16:09;24.50;99.90
2571;DHT22;1295;51.130;6.732;2023-08-20T02:18:35;24.50;99.90
2571;DHT22;1295;51.130;6.732;2023-08-20T02:21:00;24.50;99.90
2571;DHT22;1295;51.130;6.732;2023-08-20T02:23:26;24.50;99.90
2571;DHT22;1295;51.130;6.732;2023-08-20T02:25:52;24.50;99.90
2571;DHT22;1295;51.130;6.732;2023-08-20T02:28:18;24.50;99.90
2571;DHT22;1295;51.130;6.732;2023-08-20T02:30:44;24.50;99.90
2571;DHT22;1295;51.130;6.732;2023-08-20T02:33:09;24.50;99.90
2571;DHT22;1295;51.130;6.732;2023-08-20T02:35:36;24.40;99.90
2571;DHT22;1295;51.130;6.732;2023-08-20T02:38:02;24.40;99.90
2571;DHT22;1295;51.130;6.732;2023-08-20T02:40:28;24.40;99.90
2571;DHT22;1295;51.130;6.732;2023-08-20T02:42:54;24.40;99.90
2571;DHT22;1295;51.130;6.732;2023-08-20T02:45:19;24.40;99.90
2571;DHT22;1295;51.130;6.732;2023-08-20T02:47:46;24.40;99.90
2571;DHT22;1295;51.130;6.732;2023-08-20T02:50:11;24.40;99.90
2571;DHT22;1295;51.130;6.732;2023-08-20T02:52:37;24.30;99.90
2571;DHT22;1295;51.130;6.732;2023-08-20T02:55:03;24.30;99.90
2571;DHT22;1295;51.130;6.732;2023-08-20T02:57:30;24.30;99.90
2571;DHT22;1295;51.130;6.732;2023-08-20T02:59:56;24.30;99.90
2571;DHT22;1295;51.130;6.732;2023-08-20T03:02:22;24.30;99.90
2571;DHT22;1295;51.130;6.732;2023-08-20T03:04:48;24.30;99.90
2571;DHT22;1295;51.130;6.732;2023-08-20T03:07:15;24.30;99.90
2571;DHT22;1295;51.130;6.732;2023-08-20T03:09:40;24.30;99.90
2571;DHT22;1295;51.130;6.732;2023-08-20T03:12:07;24.30;99.90
2571;DHT22;1295;51.130;6.732;2023-08-20T03:14:33;24.30;99.90
2571;DHT22;1295;51.130;6.732;2023-08-20T03:16:58;24.30;99.90
2571;DHT22;1295;51.130;6.732;2023-08-20T03:19:24;24.30;99.90
2571;DHT22;1295;51.130;6.732;2023-08-20T03:21:50;24.30;99.90
2571;DHT22;1295;51.130;6.732;2023-08-20T03:24:15;24.20;99.90
2571;DHT22;1295;51.130;6.732;2023-08-20T03:26:41;24.20;99.90
2571;DHT22;1295;51.130;6.732;2023-08-20T03:29:07;24.20;99.90
2571;DHT22;1295;51.130;6.732;2023-08-20T03:31:32;24.20;99.90
2571;DHT22;1295;51.130;6.732;2023-08-20T03:33:59;24.20;99.90
2571;DHT22;1295;51.130;6.732;2023-08-20T03:36:24;24.20;99.90
2571;DHT22;1295;51.130;6.732;2023-08-20T03:38:50;24.20;99.90
2571;DHT22;1295;51.130;6.732;2023-08-20T03:41:15;24.20;99.90
2571;DHT22;1295;51.130;6.732;2023-08-20T03:43:41;24.20;99.90
2571;DHT22;1295;51.130;6.732;2023-08-20T03:46:07;24.20;99.90
2571;DHT22;1295;51.130;6.732;2023-08-20T03:48:32;24.20;99.90
2571;DHT22;1295;51.130;6.732;2023-08-20T03:50:58;24.10;99.90
2571;DHT22;1295;51.130;6.732;2023-08-20T03:53:24;24.10;99.90
2571;DHT22;1295;51.130;6.732;2023-08-20T03:55:49;24.10;99.90
2571;DHT22;1295;51.130;6.732;2023-08-20T03:58:15;24.00;99.90
2571;DHT22;1295;51.130;6.732;2023-08-20T04:00:41;24.10;99.90
2571;DHT22;1295;51.130;6.732;2023-08-20T04:03:06;24.00;99.90
2571;DHT22;1295;51.130;6.732;2023-08-20T04:05:36;24.00;99.90
2571;DHT22;1295;51.130;6.732;2023-08-20T04:08:02;24.00;99.90
2571;DHT22;1295;51.130;6.732;2023-08-20T04:10:27;24.10;99.90
2571;DHT22;1295;51.130;6.732;2023-08-20T04:12:54;24.00;99.90
2571;DHT22;1295;51.130;6.732;2023-08-20T04:15:19;24.00;99.90
2571;DHT22;1295;51.130;6.732;2023-08-20T04:17:52;24.00;99.90
2571;DHT22;1295;51.130;6.732;2023-08-20T04:20:18;24.00;99.90
2571;DHT22;1295;51.130;6.732;2023-08-20T04:22:43;24.00;99.90
2571;DHT22;1295;51.130;6.732;2023-08-20T04:25:09;24.00;99.90
2571;DHT22;1295;51.130;6.732;2023-08-20T04:27:34;24.00;99.90
2571;DHT22;1295;51.130;6.732;2023-08-20T04:30:00;24.00;99.90
2571;DHT22;1295;51.130;6.732;2023-08-20T04:32:26;23.90;99.90
2571;DHT22;1295;51.130;6.732;2023-08-20T04:34:51;23.90;99.90
2571;DHT22;1295;51.130;6.732;2023-08-20T04:37:18;23.90;99.90
2571;DHT22;1295;51.130;6.732;2023-08-20T04:39:43;23.90;99.90
2571;DHT22;1295;51.130;6.732;2023-08-20T04:42:08;23.90;99.90
2571;DHT22;1295;51.130;6.732;2023-08-20T04:44:34;23.90;99.90
2571;DHT22;1295;51.130;6.732;2023-08-20T04:46:59;23.90;99.90
2571;DHT22;1295;51.130;6.732;2023-08-20T04:49:25;23.90;99.90
2571;DHT22;1295;51.130;6.732;2023-08-20T04:51:51;23.90;99.90
2571;DHT22;1295;51.130;6.732;2023-08-20T04:54:16;23.90;99.90
2571;DHT22;1295;51.130;6.732;2023-08-20T04:56:42;23.80;99.90
2571;DHT22;1295;51.130;6.732;2023-08-20T04:59:07;23.90;99.90
2571;DHT22;1295;51.130;6.732;2023-08-20T05:01:33;23.90;99.90
2571;DHT22;1295;51.130;6.732;2023-08-20T05:03:59;23.80;99.90
2571;DHT22;1295;51.130;6.732;2023-08-20T05:06:24;23.80;99.90
2571;DHT22;1295;51.130;6.732;2023-08-20T05:08:50;23.80;99.90
2571;DHT22;1295;51.130;6.732;2023-08-20T05:11:15;23.80;99.90
2571;DHT22;1295;51.130;6.732;2023-08-20T05:13:41;23.80;99.90
2571;DHT22;1295;51.130;6.732;2023-08-20T05:16:07;23.80;99.90
2571;DHT22;1295;51.130;6.732;2023-08-20T05:18:32;23.80;99.90
2571;DHT22;1295;51.130;6.732;2023-08-20T05:20:58;23.80;99.90
2571;DHT22;1295;51.130;6.732;2023-08-20T05:23:24;23.80;99.90
2571;DHT22;1295;51.130;6.732;2023-08-20T05:25:50;23.70;99.90
2571;DHT22;1295;51.130;6.732;2023-08-20T05:28:15;23.70;99.90
2571;DHT22;1295;51.130;6.732;2023-08-20T05:30:41;23.70;99.90
2571;DHT22;1295;51.130;6.732;2023-08-20T05:33:07;23.70;99.90
2571;DHT22;1295;51.130;6.732;2023-08-20T05:35:32;23.70;99.90
2571;DHT22;1295;51.130;6.732;2023-08-20T05:37:58;23.70;99.90
2571;DHT22;1295;51.130;6.732;2023-08-20T05:40:24;23.70;99.90
2571;DHT22;1295;51.130;6.732;2023-08-20T05:42:49;23.70;99.90
2571;DHT22;1295;51.130;6.732;2023-08-20T05:45:15;23.70;99.90
2571;DHT22;1295;51.130;6.732;2023-08-20T05:47:41;23.70;99.90
2571;DHT22;1295;51.130;6.732;2023-08-20T05:50:06;23.60;99.90
2571;DHT22;1295;51.130;6.732;2023-08-20T05:52:32;23.60;99.90
2571;DHT22;1295;51.130;6.732;2023-08-20T05:54:58;23.60;99.90
2571;DHT22;1295;51.130;6.732;2023-08-20T05:57:23;23.60;99.90
2571;DHT22;1295;51.130;6.732;2023-08-20T05:59:49;23.60;99.90
2571;DHT22;1295;51.130;6.732;2023-08-20T06:02:16;23.60;99.90
2571;DHT22;1295;51.130;6.732;2023-08-20T06:04:41;23.60;99.90
2571;DHT22;1295;51.130;6.732;2023-08-20T06:07:07;23.60;99.90
2571;DHT22;1295;51.130;6.732;2023-08-20T06:09:32;23.60;99.90
2571;DHT22;1295;51.130;6.732;2023-08-20T06:11:58;23.60;99.90
2571;DHT22;1295;51.130;6.732;2023-08-20T06:14:31;23.60;99.90
2571;DHT22;1295;51.130;6.732;2023-08-20T06:16:56;23.50;99.90
2571;DHT22;1295;51.130;6.732;2023-08-20T06:19:22;23.50;99.90
2571;DHT22;1295;51.130;6.732;2023-08-20T06:21:47;23.30;99.90
2571;DHT22;1295;51.130;6.732;2023-08-20T06:24:13;23.50;99.90
2571;DHT22;1295;51.130;6.732;2023-08-20T06:26:39;23.50;99.90
2571;DHT22;1295;51.130;6.732;2023-08-20T06:29:04;23.50;99.90
2571;DHT22;1295;51.130;6.732;2023-08-20T06:31:30;23.60;99.90
2571;DHT22;1295;51.130;6.732;2023-08-20T06:33:56;23.50;99.90
2571;DHT22;1295;51.130;6.732;2023-08-20T06:36:21;23.50;99.90
2571;DHT22;1295;51.130;6.732;2023-08-20T06:38:47;23.50;99.90
2571;DHT22;1295;51.130;6.732;2023-08-20T06:41:13;23.50;99.90
2571;DHT22;1295;51.130;6.732;2023-08-20T06:43:39;23.50;99.90
2571;DHT22;1295;51.130;6.732;2023-08-20T06:46:05;23.50;99.90
2571;DHT22;1295;51.130;6.732;2023-08-20T06:48:30;23.00;99.90
2571;DHT22;1295;51.130;6.732;2023-08-20T06:50:56;23.30;99.90
2571;DHT22;1295;51.130;6.732;2023-08-20T06:53:21;23.50;99.90
2571;DHT22;1295;51.130;6.732;2023-08-20T06:55:48;23.50;99.90
2571;DHT22;1295;51.130;6.732;2023-08-20T06:58:13;23.50;99.90
2571;DHT22;1295;51.130;6.732;2023-08-20T07:00:39;23.50;99.90
2571;DHT22;1295;51.130;6.732;2023-08-20T07:03:05;23.50;99.90
2571;DHT22;1295;51.130;6.732;2023-08-20T07:05:30;23.50;99.90
2571;DHT22;1295;51.130;6.732;2023-08-20T07:07:56;23.50;99.90
2571;DHT22;1295;51.130;6.732;2023-08-20T07:10:22;23.60;99.90
2571;DHT22;1295;51.130;6.732;2023-08-20T07:12:48;23.60;99.90
2571;DHT22;1295;51.130;6.732;2023-08-20T07:15:14;23.60;99.90
2571;DHT22;1295;51.130;6.732;2023-08-20T07:17:40;23.60;99.90
2571;DHT22;1295;51.130;6.732;2023-08-20T07:20:07;23.60;99.90
2571;DHT22;1295;51.130;6.732;2023-08-20T07:22:32;23.60;99.90
2571;DHT22;1295;51.130;6.732;2023-08-20T07:24:58;23.60;99.90
2571;DHT22;1295;51.130;6.732;2023-08-20T07:27:23;23.60;99.90
2571;DHT22;1295;51.130;6.732;2023-08-20T07:29:49;23.60;99.90
2571;DHT22;1295;51.130;6.732;2023-08-20T07:32:15;23.60;99.90
2571;DHT22;1295;51.130;6.732;2023-08-20T07:34:41;23.60;99.90
2571;DHT22;1295;51.130;6.732;2023-08-20T07:37:07;23.60;99.90
2571;DHT22;1295;51.130;6.732;2023-08-20T07:39:32;23.70;99.90
2571;DHT22;1295;51.130;6.732;2023-08-20T07:41:58;23.60;99.90
2571;DHT22;1295;51.130;6.732;2023-08-20T07:44:24;23.70;99.90
2571;DHT22;1295;51.130;6.732;2023-08-20T07:46:50;23.70;99.90
2571;DHT22;1295;51.130;6.732;2023-08-20T07:49:16;23.80;99.90
2571;DHT22;1295;51.130;6.732;2023-08-20T07:51:41;23.80;99.90
2571;DHT22;1295;51.130;6.732;2023-08-20T07:54:07;23.90;99.90
2571;DHT22;1295;51.130;6.732;2023-08-20T07:56:33;23.90;99.90
2571;DHT22;1295;51.130;6.732;2023-08-20T07:58:58;24.00;99.90
2571;DHT22;1295;51.130;6.732;2023-08-20T08:01:24;23.80;99.90
2571;DHT22;1295;51.130;6.732;2023-08-20T08:03:49;24.00;99.90
2571;DHT22;1295;51.130;6.732;2023-08-20T08:06:15;24.40;99.90
2571;DHT22;1295;51.130;6.732;2023-08-20T08:08:42;24.50;99.90
2571;DHT22;1295;51.130;6.732;2023-08-20T08:11:07;24.60;99.90
2571;DHT22;1295;51.130;6.732;2023-08-20T08:13:33;24.50;99.90
2571;DHT22;1295;51.130;6.732;2023-08-20T08:15:58;24.70;99.90
2571;DHT22;1295;51.130;6.732;2023-08-20T08:18:24;24.40;99.90
2571;DHT22;1295;51.130;6.732;2023-08-20T08:20:50;24.50;99.90
2571;DHT22;1295;51.130;6.732;2023-08-20T08:23:15;24.30;99.90
2571;DHT22;1295;51.130;6.732;2023-08-20T08:25:41;25.00;99.90
2571;DHT22;1295;51.130;6.732;2023-08-20T08:28:06;24.60;99.90
2571;DHT22;1295;51.130;6.732;2023-08-20T08:30:32;24.40;99.90
2571;DHT22;1295;51.130;6.732;2023-08-20T08:32:58;24.80;99.90
2571;DHT22;1295;51.130;6.732;2023-08-20T08:35:23;24.70;99.90
2571;DHT22;1295;51.130;6.732;2023-08-20T08:37:50;25.60;99.90
2571;DHT22;1295;51.130;6.732;2023-08-20T08:40:15;25.50;99.90
2571;DHT22;1295;51.130;6.732;2023-08-20T08:42:41;25.10;99.90
2571;DHT22;1295;51.130;6.732;2023-08-20T08:45:09;26.20;99.90
2571;DHT22;1295;51.130;6.732;2023-08-20T08:47:35;26.60;99.90
2571;DHT22;1295;51.130;6.732;2023-08-20T08:50:01;26.60;99.90
2571;DHT22;1295;51.130;6.732;2023-08-20T08:52:26;25.60;99.90
2571;DHT22;1295;51.130;6.732;2023-08-20T08:54:52;25.60;99.90
2571;DHT22;1295;51.130;6.732;2023-08-20T08:57:18;25.30;99.90
2571;DHT22;1295;51.130;6.732;2023-08-20T08:59:43;24.90;99.90
2571;DHT22;1295;51.130;6.732;2023-08-20T09:02:10;24.90;99.90
2571;DHT22;1295;51.130;6.732;2023-08-20T09:04:37;24.80;99.90
2571;DHT22;1295;51.130;6.732;2023-08-20T09:07:00;24.80;99.90
2571;DHT22;1295;51.130;6.732;2023-08-20T09:09:26;24.80;99.90
2571;DHT22;1295;51.130;6.732;2023-08-20T09:11:51;25.60;99.90
2571;DHT22;1295;51.130;6.732;2023-08-20T09:14:21;25.60;99.90
2571;DHT22;1295;51.130;6.732;2023-08-20T09:16:46;26.40;99.90
2571;DHT22;1295;51.130;6.732;2023-08-20T09:19:12;26.40;99.90
2571;DHT22;1295;51.130;6.732;2023-08-20T09:21:38;28.20;99.90
2571;DHT22;1295;51.130;6.732;2023-08-20T09:24:04;28.50;99.90
2571;DHT22;1295;51.130;6.732;2023-08-20T09:26:30;27.90;99.90
2571;DHT22;1295;51.130;6.732;2023-08-20T09:28:56;27.40;99.90
2571;DHT22;1295;51.130;6.732;2023-08-20T09:31:36;27.40;99.90
2571;DHT22;1295;51.130;6.732;2023-08-20T09:33:49;26.70;99.90
2571;DHT22;1295;51.130;6.732;2023-08-20T09:36:14;25.80;99.90
2571;DHT22;1295;51.130;6.732;2023-08-20T09:38:40;26.50;99.90
2571;DHT22;1295;51.130;6.732;2023-08-20T09:41:06;27.00;99.90
2571;DHT22;1295;51.130;6.732;2023-08-20T09:43:31;28.30;99.90
2571;DHT22;1295;51.130;6.732;2023-08-20T09:45:57;28.80;99.90
2571;DHT22;1295;51.130;6.732;2023-08-20T09:48:23;27.80;99.90
2571;DHT22;1295;51.130;6.732;2023-08-20T09:50:48;27.30;99.90
2571;DHT22;1295;51.130;6.732;2023-08-20T09:53:34;27.10;99.90
2571;DHT22;1295;51.130;6.732;2023-08-20T09:56:00;26.00;99.90
2571;DHT22;1295;51.130;6.732;2023-08-20T09:58:23;25.60;99.90
2571;DHT22;1295;51.130;6.732;2023-08-20T10:00:49;26.00;99.90
2571;DHT22;1295;51.130;6.732;2023-08-20T10:03:14;25.90;99.90
2571;DHT22;1295;51.130;6.732;2023-08-20T10:05:40;25.70;99.90
2571;DHT22;1295;51.130;6.732;2023-08-20T10:08:05;26.80;99.90
2571;DHT22;1295;51.130;6.732;2023-08-20T10:10:31;26.30;99.90
2571;DHT22;1295;51.130;6.732;2023-08-20T10:12:57;27.40;99.90
2571;DHT22;1295;51.130;6.732;2023-08-20T10:15:23;25.90;99.90
2571;DHT22;1295;51.130;6.732;2023-08-20T10:17:49;25.80;99.90
2571;DHT22;1295;51.130;6.732;2023-08-20T10:20:14;25.40;99.90
2571;DHT22;1295;51.130;6.732;2023-08-20T10:22:41;25.20;99.90
2571;DHT22;1295;51.130;6.732;2023-08-20T10:25:07;25.20;99.90
2571;DHT22;1295;51.130;6.732;2023-08-20T10:27:34;25.00;99.90
2571;DHT22;1295;51.130;6.732;2023-08-20T10:29:58;25.20;99.90
2571;DHT22;1295;51.130;6.732;2023-08-20T10:35:02;25.30;99.90
2571;DHT22;1295;51.130;6.732;2023-08-20T10:37:28;25.30;99.90
2571;DHT22;1295;51.130;6.732;2023-08-20T10:39:55;25.40;99.90
2571;DHT22;1295;51.130;6.732;2023-08-20T10:42:25;25.40;99.90
2571;DHT22;1295;51.130;6.732;2023-08-20T10:45:04;25.20;99.90
2571;DHT22;1295;51.130;6.732;2023-08-20T10:47:36;25.20;99.90
2571;DHT22;1295;51.130;6.732;2023-08-20T10:50:01;25.20;99.90
2571;DHT22;1295;51.130;6.732;2023-08-20T10:52:26;25.20;99.90
2571;DHT22;1295;51.130;6.732;2023-08-20T10:54:53;25.60;99.90
2571;DHT22;1295;51.130;6.732;2023-08-20T10:57:19;25.30;99.90
2571;DHT22;1295;51.130;6.732;2023-08-20T10:59:51;25.30;99.90
2571;DHT22;1295;51.130;6.732;2023-08-20T11:02:13;26.60;99.90
2571;DHT22;1295;51.130;6.732;2023-08-20T11:04:37;26.60;99.90
2571;DHT22;1295;51.130;6.732;2023-08-20T11:07:03;26.20;99.90
2571;DHT22;1295;51.130;6.732;2023-08-20T11:09:30;26.10;99.90
2571;DHT22;1295;51.130;6.732;2023-08-20T11:11:55;25.80;99.90
2571;DHT22;1295;51.130;6.732;2023-08-20T11:14:21;25.80;99.90
2571;DHT22;1295;51.130;6.732;2023-08-20T11:16:47;26.20;99.90
2571;DHT22;1295;51.130;6.732;2023-08-20T11:19:12;27.20;99.90
2571;DHT22;1295;51.130;6.732;2023-08-20T11:21:38;26.30;99.90
2571;DHT22;1295;51.130;6.732;2023-08-20T11:24:04;25.90;99.90
2571;DHT22;1295;51.130;6.732;2023-08-20T11:26:30;25.90;99.90
2571;DHT22;1295;51.130;6.732;2023-08-20T11:28:55;25.60;99.90
2571;DHT22;1295;51.130;6.732;2023-08-20T11:31:21;25.50;99.90
2571;DHT22;1295;51.130;6.732;2023-08-20T11:33:46;25.30;99.90
2571;DHT22;1295;51.130;6.732;2023-08-20T11:36:12;26.40;99.90
2571;DHT22;1295;51.130;6.732;2023-08-20T11:38:37;26.20;99.90
2571;DHT22;1295;51.130;6.732;2023-08-20T11:41:03;26.40;99.90
2571;DHT22;1295;51.130;6.732;2023-08-20T11:43:29;27.90;99.90
2571;DHT22;1295;51.130;6.732;2023-08-20T11:45:54;27.20;99.90
2571;DHT22;1295;51.130;6.732;2023-08-20T11:48:21;26.70;99.90
2571;DHT22;1295;51.130;6.732;2023-08-20T11:50:47;26.70;99.90
2571;DHT22;1295;51.130;6.732;2023-08-20T11:53:12;26.80;99.90
2571;DHT22;1295;51.130;6.732;2023-08-20T11:55:39;26.60;99.90
2571;DHT22;1295;51.130;6.732;2023-08-20T11:58:04;26.30;99.90
2571;DHT22;1295;51.130;6.732;2023-08-20T12:00:30;28.10;99.90
2571;DHT22;1295;51.130;6.732;2023-08-20T12:02:56;28.00;99.90
2571;DHT22;1295;51.130;6.732;2023-08-20T12:05:21;27.80;99.90
2571;DHT22;1295;51.130;6.732;2023-08-20T12:07:56;28.30;99.90
2571;DHT22;1295;51.130;6.732;2023-08-20T12:10:21;28.60;99.90
2571;DHT22;1295;51.130;6.732;2023-08-20T12:12:48;28.00;99.90
2571;DHT22;1295;51.130;6.732;2023-08-20T12:15:13;27.10;99.90
2571;DHT22;1295;51.130;6.732;2023-08-20T12:17:38;28.00;99.90
2571;DHT22;1295;51.130;6.732;2023-08-20T12:20:05;28.60;99.90
2571;DHT22;1295;51.130;6.732;2023-08-20T12:22:32;27.90;99.90
2571;DHT22;1295;51.130;6.732;2023-08-20T12:24:58;27.50;99.90
2571;DHT22;1295;51.130;6.732;2023-08-20T12:27:30;26.30;99.90
2571;DHT22;1295;51.130;6.732;2023-08-20T12:29:56;25.90;99.90
2571;DHT22;1295;51.130;6.732;2023-08-20T12:32:26;26.10;99.90
2571;DHT22;1295;51.130;6.732;2023-08-20T12:35:04;27.30;99.90
2571;DHT22;1295;51.130;6.732;2023-08-20T12:37:29;27.30;99.90
2571;DHT22;1295;51.130;6.732;2023-08-20T12:39:55;26.80;99.90
2571;DHT22;1295;51.130;6.732;2023-08-20T12:42:21;26.40;99.90
2571;DHT22;1295;51.130;6.732;2023-08-20T12:44:46;26.30;99.90
2571;DHT22;1295;51.130;6.732;2023-08-20T12:47:12;26.30;99.90
2571;DHT22;1295;51.130;6.732;2023-08-20T12:49:38;26.20;99.90
2571;DHT22;1295;51.130;6.732;2023-08-20T12:52:04;26.20;99.90
2571;DHT22;1295;51.130;6.732;2023-08-20T12:54:31;26.30;99.90
2571;DHT22;1295;51.130;6.732;2023-08-20T12:56:56;26.40;99.90
2571;DHT22;1295;51.130;6.732;2023-08-20T12:59:22;26.40;99.90
2571;DHT22;1295;51.130;6.732;2023-08-20T13:01:48;26.60;99.90
2571;DHT22;1295;51.130;6.732;2023-08-20T13:04:14;26.50;99.90
2571;DHT22;1295;51.130;6.732;2023-08-20T13:06:39;27.70;99.90
2571;DHT22;1295;51.130;6.732;2023-08-20T13:09:06;27.80;99.90
2571;DHT22;1295;51.130;6.732;2023-08-20T13:11:33;27.80;99.90
2571;DHT22;1295;51.130;6.732;2023-08-20T13:13:59;27.80;99.90
2571;DHT22;1295;51.130;6.732;2023-08-20T13:16:25;27.40;99.90
2571;DHT22;1295;51.130;6.732;2023-08-20T13:18:51;26.90;99.90
2571;DHT22;1295;51.130;6.732;2023-08-20T13:21:18;26.50;99.90
2571;DHT22;1295;51.130;6.732;2023-08-20T13:23:44;26.50;99.90
2571;DHT22;1295;51.130;6.732;2023-08-20T13:26:09;26.40;99.90
2571;DHT22;1295;51.130;6.732;2023-08-20T13:28:35;27.30;99.90
2571;DHT22;1295;51.130;6.732;2023-08-20T13:31:00;27.00;99.90
2571;DHT22;1295;51.130;6.732;2023-08-20T13:33:26;26.60;99.90
2571;DHT22;1295;51.130;6.732;2023-08-20T13:35:52;26.50;99.90
2571;DHT22;1295;51.130;6.732;2023-08-20T13:38:17;26.50;99.90
2571;DHT22;1295;51.130;6.732;2023-08-20T13:40:43;27.30;99.90
2571;DHT22;1295;51.130;6.732;2023-08-20T13:43:08;26.70;99.90
2571;DHT22;1295;51.130;6.732;2023-08-20T13:45:34;26.60;99.90
2571;DHT22;1295;51.130;6.732;2023-08-20T13:48:00;27.50;99.90
2571;DHT22;1295;51.130;6.732;2023-08-20T13:50:26;27.40;99.90
2571;DHT22;1295;51.130;6.732;2023-08-20T13:52:52;27.30;99.90
2571;DHT22;1295;51.130;6.732;2023-08-20T13:55:18;26.70;99.90
2571;DHT22;1295;51.130;6.732;2023-08-20T13:57:44;26.70;99.90
2571;DHT22;1295;51.130;6.732;2023-08-20T14:00:11;26.90;99.90
2571;DHT22;1295;51.130;6.732;2023-08-20T14:02:36;27.10;99.90
2571;DHT22;1295;51.130;6.732;2023-08-20T14:05:02;26.90;99.90
2571;DHT22;1295;51.130;6.732;2023-08-20T14:07:29;26.50;99.90
2571;DHT22;1295;51.130;6.732;2023-08-20T14:09:54;26.50;99.90
2571;DHT22;1295;51.130;6.732;2023-08-20T14:12:20;26.80;99.90
2571;DHT22;1295;51.130;6.732;2023-08-20T14:14:46;26.70;99.90
2571;DHT22;1295;51.130;6.732;2023-08-20T14:17:11;26.70;99.90
2571;DHT22;1295;51.130;6.732;2023-08-20T14:19:37;26.70;99.90
2571;DHT22;1295;51.130;6.732;2023-08-20T14:22:02;26.90;99.90
2571;DHT22;1295;51.130;6.732;2023-08-20T14:24:29;27.00;99.90
2571;DHT22;1295;51.130;6.732;2023-08-20T14:26:54;27.00;99.90
2571;DHT22;1295;51.130;6.732;2023-08-20T14:29:20;26.90;99.90
2571;DHT22;1295;51.130;6.732;2023-08-20T14:31:46;27.40;99.90
2571;DHT22;1295;51.130;6.732;2023-08-20T14:34:11;26.90;99.90
2571;DHT22;1295;51.130;6.732;2023-08-20T14:36:37;26.80;99.90
2571;DHT22;1295;51.130;6.732;2023-08-20T14:39:05;26.70;99.90
2571;DHT22;1295;51.130;6.732;2023-08-20T14:41:29;26.70;99.90
2571;DHT22;1295;51.130;6.732;2023-08-20T14:43:55;26.80;99.90
2571;DHT22;1295;51.130;6.732;2023-08-20T14:46:21;27.30;99.90
2571;DHT22;1295;51.130;6.732;2023-08-20T14:48:47;27.20;99.90
2571;DHT22;1295;51.130;6.732;2023-08-20T14:51:13;27.00;99.90
2571;DHT22;1295;51.130;6.732;2023-08-20T14:53:39;27.00;99.90
2571;DHT22;1295;51.130;6.732;2023-08-20T14:56:05;27.00;99.90
2571;DHT22;1295;51.130;6.732;2023-08-20T14:58:31;27.10;99.90
2571;DHT22;1295;51.130;6.732;2023-08-20T15:01:04;27.00;99.90
2571;DHT22;1295;51.130;6.732;2023-08-20T15:03:30;27.80;99.90
2571;DHT22;1295;51.130;6.732;2023-08-20T15:05:56;27.10;99.90
2571;DHT22;1295;51.130;6.732;2023-08-20T15:08:22;27.00;99.90
2571;DHT22;1295;51.130;6.732;2023-08-20T15:10:57;26.80;99.90
2571;DHT22;1295;51.130;6.732;2023-08-20T15:13:22;26.90;99.90
2571;DHT22;1295;51.130;6.732;2023-08-20T15:15:50;28.40;99.90
2571;DHT22;1295;51.130;6.732;2023-08-20T15:18:13;27.40;99.90
2571;DHT22;1295;51.130;6.732;2023-08-20T15:20:39;27.20;99.90
2571;DHT22;1295;51.130;6.732;2023-08-20T15:23:05;27.40;99.90
2571;DHT22;1295;51.130;6.732;2023-08-20T15:25:32;27.30;99.90
2571;DHT22;1295;51.130;6.732;2023-08-20T15:27:57;27.20;99.90
2571;DHT22;1295;51.130;6.732;2023-08-20T15:30:24;28.40;99.90
2571;DHT22;1295;51.130;6.732;2023-08-20T15:32:49;28.30;99.90
2571;DHT22;1295;51.130;6.732;2023-08-20T15:35:15;27.60;99.90
2571;DHT22;1295;51.130;6.732;2023-08-20T15:37:40;27.50;99.90
2571;DHT22;1295;51.130;6.732;2023-08-20T15:40:07;27.40;99.90
2571;DHT22;1295;51.130;6.732;2023-08-20T15:42:34;27.40;99.90
2571;DHT22;1295;51.130;6.732;2023-08-20T15:45:00;27.60;99.90
2571;DHT22;1295;51.130;6.732;2023-08-20T15:47:25;27.40;99.90
2571;DHT22;1295;51.130;6.732;2023-08-20T15:49:51;27.40;99.90
2571;DHT22;1295;51.130;6.732;2023-08-20T15:52:16;27.40;99.90
2571;DHT22;1295;51.130;6.732;2023-08-20T15:54:42;27.30;99.90
2571;DHT22;1295;51.130;6.732;2023-08-20T15:57:08;27.30;99.90
2571;DHT22;1295;51.130;6.732;2023-08-20T15:59:33;27.30;99.90
2571;DHT22;1295;51.130;6.732;2023-08-20T16:01:59;27.60;99.90
2571;DHT22;1295;51.130;6.732;2023-08-20T16:04:24;27.50;99.90